sensor_id;sensor_type;location;lat;lon;timestamp;temperature;humidity
13697;DHT22;6920;50.080;8.226;2023-04-03T00:01:12;5.60;99.90
13697;DHT22;6920;50.080;8.226;2023-04-03T00:03:40;5.60;99.90
13697;DHT22;6920;50.080;8.226;2023-04-03T00:06:09;5.70;99.90
13697;DHT22;6920;50.080;8.226;2023-04-03T00:08:40;5.60;99.90
13697;DHT22;6920;50.080;8.226;2023-04-03T00:11:07;5.60;99.90
13697;DHT22;6920;50.080;8.226;2023-04-03T00:13:35;5.60;99.90
13697;DHT22;6920;50.080;8.226;2023-04-03T00:16:06;5.70;99.90
13697;DHT22;6920;50.080;8.226;2023-04-03T00:18:33;5.70;99.90
13697;DHT22;6920;50.080;8.226;2023-04-03T00:21:01;5.70;99.90
13697;DHT22;6920;50.080;8.226;2023-04-03T00:23:28;5.80;99.90
13697;DHT22;6920;50.080;8.226;2023-04-03T00:25:55;5.80;99.90
13697;DHT22;6920;50.080;8.226;2023-04-03T00:28:22;5.80;99.90
13697;DHT22;6920;50.080;8.226;2023-04-03T00:30:50;5.90;99.90
13697;DHT22;6920;50.080;8.226;2023-04-03T00:33:19;5.90;99.90
13697;DHT22;6920;50.080;8.226;2023-04-03T00:35:48;6.00;99.90
13697;DHT22;6920;50.080;8.226;2023-04-03T00:38:15;6.00;99.90
13697;DHT22;6920;50.080;8.226;2023-04-03T00:40:44;6.00;99.90
13697;DHT22;6920;50.080;8.226;2023-04-03T00:43:13;6.10;99.90
13697;DHT22;6920;50.080;8.226;2023-04-03T00:45:42;6.10;99.90
13697;DHT22;6920;50.080;8.226;2023-04-03T00:48:13;6.10;99.90
13697;DHT22;6920;50.080;8.226;2023-04-03T00:50:44;6.10;99.90
13697;DHT22;6920;50.080;8.226;2023-04-03T00:53:13;6.10;99.90
13697;DHT22;6920;50.080;8.226;2023-04-03T00:55:43;6.10;99.90
13697;DHT22;6920;50.080;8.226;2023-04-03T00:58:12;6.20;99.90
13697;DHT22;6920;50.080;8.226;2023-04-03T01:00:44;6.20;99.90
13697;DHT22;6920;50.080;8.226;2023-04-03T01:03:13;6.20;99.90
13697;DHT22;6920;50.080;8.226;2023-04-03T01:05:40;6.30;99.90
13697;DHT22;6920;50.080;8.226;2023-04-03T01:08:10;6.30;99.90
13697;DHT22;6920;50.080;8.226;2023-04-03T01:10:38;6.30;99.90
13697;DHT22;6920;50.080;8.226;2023-04-03T01:13:22;6.30;99.90
13697;DHT22;6920;50.080;8.226;2023-04-03T01:15:51;6.30;99.90
13697;DHT22;6920;50.080;8.226;2023-04-03T01:18:18;6.40;99.90
13697;DHT22;6920;50.080;8.226;2023-04-03T01:24:05;6.50;99.90
13697;DHT22;6920;50.080;8.226;2023-04-03T01:26:37;6.40;99.90
13697;DHT22;6920;50.080;8.226;2023-04-03T01:29:10;6.40;99.90
13697;DHT22;6920;50.080;8.226;2023-04-03T01:31:49;6.30;99.90
13697;DHT22;6920;50.080;8.226;2023-04-03T01:34:16;6.40;99.90
13697;DHT22;6920;50.080;8.226;2023-04-03T01:36:45;6.30;99.90
13697;DHT22;6920;50.080;8.226;2023-04-03T01:39:12;6.30;99.90
13697;DHT22;6920;50.080;8.226;2023-04-03T01:41:39;6.30;99.90
13697;DHT22;6920;50.080;8.226;2023-04-03T01:44:07;6.30;99.90
13697;DHT22;6920;50.080;8.226;2023-04-03T01:46:34;6.20;99.90
13697;DHT22;6920;50.080;8.226;2023-04-03T01:49:05;6.30;99.90
13697;DHT22;6920;50.080;8.226;2023-04-03T01:51:32;6.30;99.90
13697;DHT22;6920;50.080;8.226;2023-04-03T01:54:00;6.30;99.90
13697;DHT22;6920;50.080;8.226;2023-04-03T01:56:27;6.30;99.90
13697;DHT22;6920;50.080;8.226;2023-04-03T01:58:55;6.30;99.90
13697;DHT22;6920;50.080;8.226;2023-04-03T02:01:23;6.20;99.90
13697;DHT22;6920;50.080;8.226;2023-04-03T02:03:52;6.20;99.90
13697;DHT22;6920;50.080;8.226;2023-04-03T02:06:21;6.30;99.90
13697;DHT22;6920;50.080;8.226;2023-04-03T02:08:50;6.30;99.90
13697;DHT22;6920;50.080;8.226;2023-04-03T02:11:17;6.30;99.90
13697;DHT22;6920;50.080;8.226;2023-04-03T02:13:44;6.30;99.90
13697;DHT22;6920;50.080;8.226;2023-04-03T02:16:11;6.30;99.90
13697;DHT22;6920;50.080;8.226;2023-04-03T02:18:39;6.30;99.90
13697;DHT22;6920;50.080;8.226;2023-04-03T02:21:06;6.30;99.90
13697;DHT22;6920;50.080;8.226;2023-04-03T02:23:34;6.30;99.90
13697;DHT22;6920;50.080;8.226;2023-04-03T02:26:05;6.20;99.90
13697;DHT22;6920;50.080;8.226;2023-04-03T02:28:35;6.20;99.90
13697;DHT22;6920;50.080;8.226;2023-04-03T02:31:02;6.20;99.90
13697;DHT22;6920;50.080;8.226;2023-04-03T02:33:31;6.10;99.90
13697;DHT22;6920;50.080;8.226;2023-04-03T02:35:59;6.20;99.90
13697;DHT22;6920;50.080;8.226;2023-04-03T02:38:26;6.20;99.90
13697;DHT22;6920;50.080;8.226;2023-04-03T02:40:59;6.10;99.90
13697;DHT22;6920;50.080;8.226;2023-04-03T02:43:27;6.10;99.90
13697;DHT22;6920;50.080;8.226;2023-04-03T02:45:55;6.10;99.90
13697;DHT22;6920;50.080;8.226;2023-04-03T02:48:23;6.10;99.90
13697;DHT22;6920;50.080;8.226;2023-04-03T02:50:50;6.10;99.90
13697;DHT22;6920;50.080;8.226;2023-04-03T02:53:18;6.10;99.90
13697;DHT22;6920;50.080;8.226;2023-04-03T02:55:45;6.00;99.90
13697;DHT22;6920;50.080;8.226;2023-04-03T02:58:16;6.00;99.90
13697;DHT22;6920;50.080;8.226;2023-04-03T03:00:45;6.00;99.90
13697;DHT22;6920;50.080;8.226;2023-04-03T03:03:13;6.00;99.90
13697;DHT22;6920;50.080;8.226;2023-04-03T03:05:40;6.00;99.90
13697;DHT22;6920;50.080;8.226;2023-04-03T03:08:07;5.90;99.90
13697;DHT22;6920;50.080;8.226;2023-04-03T03:10:34;5.90;99.90
13697;DHT22;6920;50.080;8.226;2023-04-03T03:13:01;5.90;99.90
13697;DHT22;6920;50.080;8.226;2023-04-03T03:15:30;5.90;99.90
13697;DHT22;6920;50.080;8.226;2023-04-03T03:17:57;6.00;99.90
13697;DHT22;6920;50.080;8.226;2023-04-03T03:22:54;5.90;99.90
13697;DHT22;6920;50.080;8.226;2023-04-03T03:25:21;5.90;99.90
13697;DHT22;6920;50.080;8.226;2023-04-03T03:27:48;5.90;99.90
13697;DHT22;6920;50.080;8.226;2023-04-03T03:30:15;5.90;99.90
13697;DHT22;6920;50.080;8.226;2023-04-03T03:32:45;5.90;99.90
13697;DHT22;6920;50.080;8.226;2023-04-03T03:35:12;5.70;99.90
13697;DHT22;6920;50.080;8.226;2023-04-03T03:37:39;5.80;99.90
13697;DHT22;6920;50.080;8.226;2023-04-03T03:40:09;5.80;99.90
13697;DHT22;6920;50.080;8.226;2023-04-03T03:42:38;5.80;99.90
13697;DHT22;6920;50.080;8.226;2023-04-03T03:45:06;5.80;99.90
13697;DHT22;6920;50.080;8.226;2023-04-03T03:47:33;5.80;99.90
13697;DHT22;6920;50.080;8.226;2023-04-03T03:50:02;5.80;99.90
13697;DHT22;6920;50.080;8.226;2023-04-03T03:52:30;5.70;99.90
13697;DHT22;6920;50.080;8.226;2023-04-03T03:54:59;5.70;99.90
13697;DHT22;6920;50.080;8.226;2023-04-03T03:57:27;5.70;99.90
13697;DHT22;6920;50.080;8.226;2023-04-03T03:59:55;5.70;99.90
13697;DHT22;6920;50.080;8.226;2023-04-03T04:02:26;5.60;99.90
13697;DHT22;6920;50.080;8.226;2023-04-03T04:04:53;5.60;99.90
13697;DHT22;6920;50.080;8.226;2023-04-03T04:07:22;5.50;99.90
13697;DHT22;6920;50.080;8.226;2023-04-03T04:09:49;5.50;99.90
13697;DHT22;6920;50.080;8.226;2023-04-03T04:12:18;5.50;99.90
13697;DHT22;6920;50.080;8.226;2023-04-03T04:17:14;5.40;99.90
13697;DHT22;6920;50.080;8.226;2023-04-03T04:19:41;5.40;99.90
13697;DHT22;6920;50.080;8.226;2023-04-03T04:22:08;5.40;99.90
13697;DHT22;6920;50.080;8.226;2023-04-03T04:24:42;5.40;99.90
13697;DHT22;6920;50.080;8.226;2023-04-03T04:27:09;5.30;99.90
13697;DHT22;6920;50.080;8.226;2023-04-03T04:29:36;5.20;99.90
13697;DHT22;6920;50.080;8.226;2023-04-03T04:32:04;5.20;99.90
13697;DHT22;6920;50.080;8.226;2023-04-03T04:34:34;5.20;99.90
13697;DHT22;6920;50.080;8.226;2023-04-03T04:37:01;5.20;99.90
13697;DHT22;6920;50.080;8.226;2023-04-03T04:39:28;5.20;99.90
13697;DHT22;6920;50.080;8.226;2023-04-03T04:41:57;5.10;99.90
13697;DHT22;6920;50.080;8.226;2023-04-03T04:44:24;5.10;99.90
13697;DHT22;6920;50.080;8.226;2023-04-03T04:49:18;5.00;99.90
13697;DHT22;6920;50.080;8.226;2023-04-03T04:51:48;4.90;99.90
13697;DHT22;6920;50.080;8.226;2023-04-03T04:54:18;4.80;99.90
13697;DHT22;6920;50.080;8.226;2023-04-03T04:56:48;4.70;99.90
13697;DHT22;6920;50.080;8.226;2023-04-03T04:59:32;4.70;99.90
13697;DHT22;6920;50.080;8.226;2023-04-03T05:01:59;4.60;99.90
13697;DHT22;6920;50.080;8.226;2023-04-03T05:04:28;4.60;99.90
13697;DHT22;6920;50.080;8.226;2023-04-03T05:06:57;4.60;99.90
13697;DHT22;6920;50.080;8.226;2023-04-03T05:09:25;4.60;99.90
13697;DHT22;6920;50.080;8.226;2023-04-03T05:11:52;4.60;99.90
13697;DHT22;6920;50.080;8.226;2023-04-03T05:14:19;4.50;99.90
13697;DHT22;6920;50.080;8.226;2023-04-03T05:16:52;4.50;99.90
13697;DHT22;6920;50.080;8.226;2023-04-03T05:19:21;4.50;99.90
13697;DHT22;6920;50.080;8.226;2023-04-03T05:21:48;4.50;99.90
13697;DHT22;6920;50.080;8.226;2023-04-03T05:24:17;4.40;99.90
13697;DHT22;6920;50.080;8.226;2023-04-03T05:26:45;4.50;99.90
13697;DHT22;6920;50.080;8.226;2023-04-03T05:29:13;4.40;99.90
13697;DHT22;6920;50.080;8.226;2023-04-03T05:31:41;4.50;99.90
13697;DHT22;6920;50.080;8.226;2023-04-03T05:34:12;4.40;99.90
13697;DHT22;6920;50.080;8.226;2023-04-03T05:36:40;4.40;99.90
13697;DHT22;6920;50.080;8.226;2023-04-03T05:39:09;4.30;99.90
13697;DHT22;6920;50.080;8.226;2023-04-03T05:41:36;4.30;99.90
13697;DHT22;6920;50.080;8.226;2023-04-03T05:44:04;4.40;99.90
13697;DHT22;6920;50.080;8.226;2023-04-03T05:46:31;4.30;99.90
13697;DHT22;6920;50.080;8.226;2023-04-03T05:48:59;4.30;99.90
13697;DHT22;6920;50.080;8.226;2023-04-03T05:51:33;4.40;99.90
13697;DHT22;6920;50.080;8.226;2023-04-03T05:54:09;4.50;99.90
13697;DHT22;6920;50.080;8.226;2023-04-03T05:56:38;4.50;99.90
13697;DHT22;6920;50.080;8.226;2023-04-03T05:59:06;4.50;99.90
13697;DHT22;6920;50.080;8.226;2023-04-03T06:01:34;4.60;99.90
13697;DHT22;6920;50.080;8.226;2023-04-03T06:04:03;4.50;99.90
13697;DHT22;6920;50.080;8.226;2023-04-03T06:06:45;4.70;99.90
13697;DHT22;6920;50.080;8.226;2023-04-03T06:09:13;4.70;99.90
13697;DHT22;6920;50.080;8.226;2023-04-03T06:11:41;4.80;99.90
13697;DHT22;6920;50.080;8.226;2023-04-03T06:14:10;4.90;99.90
13697;DHT22;6920;50.080;8.226;2023-04-03T06:16:41;4.90;99.90
13697;DHT22;6920;50.080;8.226;2023-04-03T06:19:09;4.90;99.90
13697;DHT22;6920;50.080;8.226;2023-04-03T06:21:37;5.00;99.90
13697;DHT22;6920;50.080;8.226;2023-04-03T06:24:06;5.00;99.90
13697;DHT22;6920;50.080;8.226;2023-04-03T06:26:35;5.10;99.90
13697;DHT22;6920;50.080;8.226;2023-04-03T06:29:02;5.20;99.90
13697;DHT22;6920;50.080;8.226;2023-04-03T06:31:33;5.20;99.90
13697;DHT22;6920;50.080;8.226;2023-04-03T06:34:03;5.10;99.90
13697;DHT22;6920;50.080;8.226;2023-04-03T06:36:31;5.20;99.90
13697;DHT22;6920;50.080;8.226;2023-04-03T06:39:00;5.10;99.90
13697;DHT22;6920;50.080;8.226;2023-04-03T06:41:29;5.20;99.90
13697;DHT22;6920;50.080;8.226;2023-04-03T06:43:57;5.10;99.90
13697;DHT22;6920;50.080;8.226;2023-04-03T06:46:26;5.20;99.90
13697;DHT22;6920;50.080;8.226;2023-04-03T06:48:55;5.20;99.90
13697;DHT22;6920;50.080;8.226;2023-04-03T06:51:24;5.20;99.90
13697;DHT22;6920;50.080;8.226;2023-04-03T06:53:53;5.40;99.90
13697;DHT22;6920;50.080;8.226;2023-04-03T06:56:23;5.60;99.90
13697;DHT22;6920;50.080;8.226;2023-04-03T06:58:53;5.60;99.90
13697;DHT22;6920;50.080;8.226;2023-04-03T07:01:24;5.70;99.90
13697;DHT22;6920;50.080;8.226;2023-04-03T07:03:53;5.90;99.90
13697;DHT22;6920;50.080;8.226;2023-04-03T07:06:21;5.90;99.90
13697;DHT22;6920;50.080;8.226;2023-04-03T07:08:48;6.00;99.90
13697;DHT22;6920;50.080;8.226;2023-04-03T07:11:16;6.10;99.90
13697;DHT22;6920;50.080;8.226;2023-04-03T07:13:44;6.20;99.90
13697;DHT22;6920;50.080;8.226;2023-04-03T07:16:14;6.40;99.90
13697;DHT22;6920;50.080;8.226;2023-04-03T07:18:45;6.50;99.90
13697;DHT22;6920;50.080;8.226;2023-04-03T07:21:15;6.30;99.90
13697;DHT22;6920;50.080;8.226;2023-04-03T07:23:42;6.30;99.90
13697;DHT22;6920;50.080;8.226;2023-04-03T07:26:10;6.30;99.90
13697;DHT22;6920;50.080;8.226;2023-04-03T07:28:38;6.50;99.90
13697;DHT22;6920;50.080;8.226;2023-04-03T07:31:11;6.20;99.90
13697;DHT22;6920;50.080;8.226;2023-04-03T07:33:43;6.30;99.90
13697;DHT22;6920;50.080;8.226;2023-04-03T07:36:14;6.60;99.90
13697;DHT22;6920;50.080;8.226;2023-04-03T07:38:43;6.60;99.90
13697;DHT22;6920;50.080;8.226;2023-04-03T07:41:14;6.60;99.90
13697;DHT22;6920;50.080;8.226;2023-04-03T07:43:43;6.70;99.90
13697;DHT22;6920;50.080;8.226;2023-04-03T07:46:10;6.80;99.90
13697;DHT22;6920;50.080;8.226;2023-04-03T07:48:43;7.00;99.90
13697;DHT22;6920;50.080;8.226;2023-04-03T07:51:12;6.90;99.90
13697;DHT22;6920;50.080;8.226;2023-04-03T07:53:42;6.50;99.90
13697;DHT22;6920;50.080;8.226;2023-04-03T07:56:10;6.70;99.90
13697;DHT22;6920;50.080;8.226;2023-04-03T07:58:37;7.00;99.90
13697;DHT22;6920;50.080;8.226;2023-04-03T08:03:35;7.60;99.90
13697;DHT22;6920;50.080;8.226;2023-04-03T08:06:07;7.50;99.90
13697;DHT22;6920;50.080;8.226;2023-04-03T08:08:39;7.80;99.90
13697;DHT22;6920;50.080;8.226;2023-04-03T08:11:09;7.40;99.90
13697;DHT22;6920;50.080;8.226;2023-04-03T08:13:38;7.40;99.90
13697;DHT22;6920;50.080;8.226;2023-04-03T08:16:32;7.80;99.90
13697;DHT22;6920;50.080;8.226;2023-04-03T08:21:29;8.50;99.90
13697;DHT22;6920;50.080;8.226;2023-04-03T08:26:29;7.90;99.90
13697;DHT22;6920;50.080;8.226;2023-04-03T08:31:27;8.30;99.90
13697;DHT22;6920;50.080;8.226;2023-04-03T08:33:57;7.90;99.90
13697;DHT22;6920;50.080;8.226;2023-04-03T08:36:26;8.20;99.90
13697;DHT22;6920;50.080;8.226;2023-04-03T08:38:57;8.20;99.90
13697;DHT22;6920;50.080;8.226;2023-04-03T08:41:29;8.10;99.90
13697;DHT22;6920;50.080;8.226;2023-04-03T08:46:55;8.40;99.90
13697;DHT22;6920;50.080;8.226;2023-04-03T08:49:27;8.30;99.90
13697;DHT22;6920;50.080;8.226;2023-04-03T08:52:01;8.50;99.90
13697;DHT22;6920;50.080;8.226;2023-04-03T08:54:33;8.70;99.90
13697;DHT22;6920;50.080;8.226;2023-04-03T08:57:04;8.90;99.90
13697;DHT22;6920;50.080;8.226;2023-04-03T08:59:34;9.00;99.90
13697;DHT22;6920;50.080;8.226;2023-04-03T09:02:18;9.70;99.90
13697;DHT22;6920;50.080;8.226;2023-04-03T09:04:48;10.00;99.90
13697;DHT22;6920;50.080;8.226;2023-04-03T09:07:21;10.10;99.90
13697;DHT22;6920;50.080;8.226;2023-04-03T09:09:52;9.70;99.90
13697;DHT22;6920;50.080;8.226;2023-04-03T09:12:22;9.70;99.90
13697;DHT22;6920;50.080;8.226;2023-04-03T09:14:59;8.30;99.90
13697;DHT22;6920;50.080;8.226;2023-04-03T09:17:41;7.80;99.90
13697;DHT22;6920;50.080;8.226;2023-04-03T09:20:21;7.60;99.90
13697;DHT22;6920;50.080;8.226;2023-04-03T09:22:52;8.40;99.90
13697;DHT22;6920;50.080;8.226;2023-04-03T09:25:24;8.60;99.90
13697;DHT22;6920;50.080;8.226;2023-04-03T09:27:53;8.90;99.90
13697;DHT22;6920;50.080;8.226;2023-04-03T09:30:24;8.90;99.90
13697;DHT22;6920;50.080;8.226;2023-04-03T09:33:06;9.30;99.90
13697;DHT22;6920;50.080;8.226;2023-04-03T09:35:36;9.70;99.90
13697;DHT22;6920;50.080;8.226;2023-04-03T09:38:16;9.50;99.90
13697;DHT22;6920;50.080;8.226;2023-04-03T09:40:47;9.80;99.80
13697;DHT22;6920;50.080;8.226;2023-04-03T09:43:26;9.80;99.80
13697;DHT22;6920;50.080;8.226;2023-04-03T09:45:55;9.50;99.90
13697;DHT22;6920;50.080;8.226;2023-04-03T09:48:26;10.10;99.90
13697;DHT22;6920;50.080;8.226;2023-04-03T09:51:00;9.90;99.30
13697;DHT22;6920;50.080;8.226;2023-04-03T09:53:35;9.50;99.50
13697;DHT22;6920;50.080;8.226;2023-04-03T09:56:18;9.00;99.90
13697;DHT22;6920;50.080;8.226;2023-04-03T09:58:48;8.80;99.90
13697;DHT22;6920;50.080;8.226;2023-04-03T10:01:26;9.10;99.90
13697;DHT22;6920;50.080;8.226;2023-04-03T10:04:09;9.30;99.90
13697;DHT22;6920;50.080;8.226;2023-04-03T10:06:39;9.30;99.90
13697;DHT22;6920;50.080;8.226;2023-04-03T10:09:23;9.50;99.90
13697;DHT22;6920;50.080;8.226;2023-04-03T10:12:03;9.50;99.90
13697;DHT22;6920;50.080;8.226;2023-04-03T10:14:33;9.50;99.90
13697;DHT22;6920;50.080;8.226;2023-04-03T10:17:16;9.30;99.90
13697;DHT22;6920;50.080;8.226;2023-04-03T10:19:48;9.20;99.90
13697;DHT22;6920;50.080;8.226;2023-04-03T10:22:21;9.40;99.90
13697;DHT22;6920;50.080;8.226;2023-04-03T10:25:03;9.50;99.90
13697;DHT22;6920;50.080;8.226;2023-04-03T10:27:42;9.90;99.90
13697;DHT22;6920;50.080;8.226;2023-04-03T10:30:33;9.90;99.90
13697;DHT22;6920;50.080;8.226;2023-04-03T10:33:11;9.20;99.90
13697;DHT22;6920;50.080;8.226;2023-04-03T10:35:53;9.60;99.90
13697;DHT22;6920;50.080;8.226;2023-04-03T10:38:32;10.50;99.90
13697;DHT22;6920;50.080;8.226;2023-04-03T10:41:05;9.80;99.90
13697;DHT22;6920;50.080;8.226;2023-04-03T10:43:39;10.00;99.90
13697;DHT22;6920;50.080;8.226;2023-04-03T10:46:14;9.50;99.90
13697;DHT22;6920;50.080;8.226;2023-04-03T10:48:58;9.70;99.90
13697;DHT22;6920;50.080;8.226;2023-04-03T10:51:37;10.00;99.90
13697;DHT22;6920;50.080;8.226;2023-04-03T10:54:11;10.20;99.90
13697;DHT22;6920;50.080;8.226;2023-04-03T10:56:44;10.80;99.90
13697;DHT22;6920;50.080;8.226;2023-04-03T10:59:21;10.00;99.90
13697;DHT22;6920;50.080;8.226;2023-04-03T11:01:53;10.00;99.90
13697;DHT22;6920;50.080;8.226;2023-04-03T11:04:25;10.20;99.90
13697;DHT22;6920;50.080;8.226;2023-04-03T11:07:00;10.30;99.90
13697;DHT22;6920;50.080;8.226;2023-04-03T11:09:32;10.40;99.90
13697;DHT22;6920;50.080;8.226;2023-04-03T11:12:06;10.70;99.80
13697;DHT22;6920;50.080;8.226;2023-04-03T11:14:38;10.60;99.20
13697;DHT22;6920;50.080;8.226;2023-04-03T11:17:19;10.70;99.80
13697;DHT22;6920;50.080;8.226;2023-04-03T11:19:56;10.80;99.50
13697;DHT22;6920;50.080;8.226;2023-04-03T11:22:30;11.50;98.80
13697;DHT22;6920;50.080;8.226;2023-04-03T11:25:04;11.50;98.90
13697;DHT22;6920;50.080;8.226;2023-04-03T11:27:40;10.90;98.60
13697;DHT22;6920;50.080;8.226;2023-04-03T11:30:15;11.30;99.10
13697;DHT22;6920;50.080;8.226;2023-04-03T11:33:13;11.20;97.80
13697;DHT22;6920;50.080;8.226;2023-04-03T11:35:44;11.50;98.50
13697;DHT22;6920;50.080;8.226;2023-04-03T11:38:20;12.20;97.50
13697;DHT22;6920;50.080;8.226;2023-04-03T11:40:49;11.70;97.30
13697;DHT22;6920;50.080;8.226;2023-04-03T11:43:25;11.50;98.10
13697;DHT22;6920;50.080;8.226;2023-04-03T11:45:54;11.50;96.80
13697;DHT22;6920;50.080;8.226;2023-04-03T11:48:50;10.60;97.60
13697;DHT22;6920;50.080;8.226;2023-04-03T11:51:51;11.10;97.80
13697;DHT22;6920;50.080;8.226;2023-04-03T11:54:46;11.00;97.30
13697;DHT22;6920;50.080;8.226;2023-04-03T11:57:49;11.00;97.30
13697;DHT22;6920;50.080;8.226;2023-04-03T12:01:05;10.90;97.00
13697;DHT22;6920;50.080;8.226;2023-04-03T12:03:58;10.50;98.10
13697;DHT22;6920;50.080;8.226;2023-04-03T12:10:13;11.30;96.60
13697;DHT22;6920;50.080;8.226;2023-04-03T12:12:43;11.40;96.10
13697;DHT22;6920;50.080;8.226;2023-04-03T12:15:52;11.50;96.80
13697;DHT22;6920;50.080;8.226;2023-04-03T12:18:57;11.50;96.10
13697;DHT22;6920;50.080;8.226;2023-04-03T12:24:33;11.20;95.80
13697;DHT22;6920;50.080;8.226;2023-04-03T12:27:13;11.40;95.00
13697;DHT22;6920;50.080;8.226;2023-04-03T12:29:47;11.40;95.60
13697;DHT22;6920;50.080;8.226;2023-04-03T12:32:30;10.70;95.00
13697;DHT22;6920;50.080;8.226;2023-04-03T12:35:14;10.10;96.00
13697;DHT22;6920;50.080;8.226;2023-04-03T12:38:11;10.90;95.90
13697;DHT22;6920;50.080;8.226;2023-04-03T12:40:47;10.80;94.10
13697;DHT22;6920;50.080;8.226;2023-04-03T12:43:41;11.10;94.80
13697;DHT22;6920;50.080;8.226;2023-04-03T12:46:15;11.60;94.40
13697;DHT22;6920;50.080;8.226;2023-04-03T12:48:50;11.50;93.40
13697;DHT22;6920;50.080;8.226;2023-04-03T12:51:21;10.80;93.90
13697;DHT22;6920;50.080;8.226;2023-04-03T12:53:50;11.00;94.40
13697;DHT22;6920;50.080;8.226;2023-04-03T12:56:22;11.60;93.30
13697;DHT22;6920;50.080;8.226;2023-04-03T12:58:54;11.90;92.70
13697;DHT22;6920;50.080;8.226;2023-04-03T13:01:23;11.50;93.30
13697;DHT22;6920;50.080;8.226;2023-04-03T13:03:53;11.10;93.20
13697;DHT22;6920;50.080;8.226;2023-04-03T13:06:24;11.40;92.30
13697;DHT22;6920;50.080;8.226;2023-04-03T13:08:55;11.60;92.80
13697;DHT22;6920;50.080;8.226;2023-04-03T13:11:25;11.60;92.00
13697;DHT22;6920;50.080;8.226;2023-04-03T13:14:19;11.30;91.90
13697;DHT22;6920;50.080;8.226;2023-04-03T13:16:54;11.80;91.80
13697;DHT22;6920;50.080;8.226;2023-04-03T13:19:23;11.60;91.30
13697;DHT22;6920;50.080;8.226;2023-04-03T13:21:54;11.60;92.20
13697;DHT22;6920;50.080;8.226;2023-04-03T13:24:25;11.80;92.60
13697;DHT22;6920;50.080;8.226;2023-04-03T13:26:53;11.90;91.50
13697;DHT22;6920;50.080;8.226;2023-04-03T13:29:29;12.10;92.00
13697;DHT22;6920;50.080;8.226;2023-04-03T13:32:05;11.80;91.20
13697;DHT22;6920;50.080;8.226;2023-04-03T13:34:37;11.80;90.20
13697;DHT22;6920;50.080;8.226;2023-04-03T13:37:05;12.00;90.00
13697;DHT22;6920;50.080;8.226;2023-04-03T13:39:35;11.60;90.50
13697;DHT22;6920;50.080;8.226;2023-04-03T13:42:15;11.70;91.40
13697;DHT22;6920;50.080;8.226;2023-04-03T13:44:44;11.50;90.60
13697;DHT22;6920;50.080;8.226;2023-04-03T13:47:18;11.50;90.30
13697;DHT22;6920;50.080;8.226;2023-04-03T13:50:00;11.40;91.00
13697;DHT22;6920;50.080;8.226;2023-04-03T13:52:29;12.10;90.60
13697;DHT22;6920;50.080;8.226;2023-04-03T13:55:11;12.10;89.40
13697;DHT22;6920;50.080;8.226;2023-04-03T13:57:49;12.00;90.90
13697;DHT22;6920;50.080;8.226;2023-04-03T14:00:38;11.90;92.80
13697;DHT22;6920;50.080;8.226;2023-04-03T14:03:13;11.90;90.60
13697;DHT22;6920;50.080;8.226;2023-04-03T14:05:41;11.70;90.50
13697;DHT22;6920;50.080;8.226;2023-04-03T14:08:08;11.00;90.80
13697;DHT22;6920;50.080;8.226;2023-04-03T14:10:36;11.30;90.70
13697;DHT22;6920;50.080;8.226;2023-04-03T14:13:03;10.40;91.30
13697;DHT22;6920;50.080;8.226;2023-04-03T14:15:31;11.40;91.00
13697;DHT22;6920;50.080;8.226;2023-04-03T14:18:00;11.80;90.70
13697;DHT22;6920;50.080;8.226;2023-04-03T14:20:27;11.90;90.30
13697;DHT22;6920;50.080;8.226;2023-04-03T14:25:23;11.90;90.30
13697;DHT22;6920;50.080;8.226;2023-04-03T14:27:52;11.60;90.40
13697;DHT22;6920;50.080;8.226;2023-04-03T14:30:22;11.80;90.00
13697;DHT22;6920;50.080;8.226;2023-04-03T14:32:49;11.10;89.60
13697;DHT22;6920;50.080;8.226;2023-04-03T14:35:18;10.80;89.70
13697;DHT22;6920;50.080;8.226;2023-04-03T14:37:46;10.80;88.80
13697;DHT22;6920;50.080;8.226;2023-04-03T14:40:15;10.90;90.60
13697;DHT22;6920;50.080;8.226;2023-04-03T14:42:43;11.40;89.80
13697;DHT22;6920;50.080;8.226;2023-04-03T14:45:11;11.20;90.10
13697;DHT22;6920;50.080;8.226;2023-04-03T14:47:42;11.60;89.70
13697;DHT22;6920;50.080;8.226;2023-04-03T14:50:15;11.80;90.00
13697;DHT22;6920;50.080;8.226;2023-04-03T14:52:44;11.70;90.00
13697;DHT22;6920;50.080;8.226;2023-04-03T14:55:14;11.10;90.00
13697;DHT22;6920;50.080;8.226;2023-04-03T14:57:41;11.00;90.30
13697;DHT22;6920;50.080;8.226;2023-04-03T15:00:13;10.90;89.60
13697;DHT22;6920;50.080;8.226;2023-04-03T15:02:41;10.70;89.40
13697;DHT22;6920;50.080;8.226;2023-04-03T15:05:10;10.80;90.20
13697;DHT22;6920;50.080;8.226;2023-04-03T15:07:39;9.80;90.90
13697;DHT22;6920;50.080;8.226;2023-04-03T15:10:18;10.20;90.30
13697;DHT22;6920;50.080;8.226;2023-04-03T15:12:46;10.10;90.80
13697;DHT22;6920;50.080;8.226;2023-04-03T15:15:16;10.10;90.50
13697;DHT22;6920;50.080;8.226;2023-04-03T15:17:46;10.10;90.90
13697;DHT22;6920;50.080;8.226;2023-04-03T15:20:16;10.00;90.10
13697;DHT22;6920;50.080;8.226;2023-04-03T15:22:44;9.60;91.00
13697;DHT22;6920;50.080;8.226;2023-04-03T15:25:11;9.70;90.80
13697;DHT22;6920;50.080;8.226;2023-04-03T15:27:40;9.70;91.20
13697;DHT22;6920;50.080;8.226;2023-04-03T15:30:14;9.60;91.40
13697;DHT22;6920;50.080;8.226;2023-04-03T15:37:37;9.40;91.40
13697;DHT22;6920;50.080;8.226;2023-04-03T15:40:07;9.50;92.00
13697;DHT22;6920;50.080;8.226;2023-04-03T15:42:36;9.60;91.40
13697;DHT22;6920;50.080;8.226;2023-04-03T15:45:06;9.50;91.80
13697;DHT22;6920;50.080;8.226;2023-04-03T15:47:35;9.60;91.90
13697;DHT22;6920;50.080;8.226;2023-04-03T15:50:04;9.50;92.00
13697;DHT22;6920;50.080;8.226;2023-04-03T15:52:36;9.50;92.00
13697;DHT22;6920;50.080;8.226;2023-04-03T15:55:03;9.30;91.30
13697;DHT22;6920;50.080;8.226;2023-04-03T15:57:32;8.90;91.30
13697;DHT22;6920;50.080;8.226;2023-04-03T16:00:00;9.00;91.80
13697;DHT22;6920;50.080;8.226;2023-04-03T16:02:35;9.10;91.70
13697;DHT22;6920;50.080;8.226;2023-04-03T16:05:03;9.10;92.00
13697;DHT22;6920;50.080;8.226;2023-04-03T16:07:30;9.00;91.90
13697;DHT22;6920;50.080;8.226;2023-04-03T16:09:57;8.90;92.80
13697;DHT22;6920;50.080;8.226;2023-04-03T16:12:24;8.90;93.00
13697;DHT22;6920;50.080;8.226;2023-04-03T16:14:53;8.70;92.60
13697;DHT22;6920;50.080;8.226;2023-04-03T16:17:23;8.70;93.10
13697;DHT22;6920;50.080;8.226;2023-04-03T16:19:54;8.80;93.40
13697;DHT22;6920;50.080;8.226;2023-04-03T16:22:21;8.80;93.50
13697;DHT22;6920;50.080;8.226;2023-04-03T16:24:52;8.70;93.30
13697;DHT22;6920;50.080;8.226;2023-04-03T16:27:19;8.30;92.40
13697;DHT22;6920;50.080;8.226;2023-04-03T16:29:49;8.50;93.00
13697;DHT22;6920;50.080;8.226;2023-04-03T16:32:17;8.30;92.60
13697;DHT22;6920;50.080;8.226;2023-04-03T16:34:48;8.30;92.90
13697;DHT22;6920;50.080;8.226;2023-04-03T16:37:22;8.50;93.00
13697;DHT22;6920;50.080;8.226;2023-04-03T16:39:51;8.40;93.20
13697;DHT22;6920;50.080;8.226;2023-04-03T16:42:20;8.40;93.10
13697;DHT22;6920;50.080;8.226;2023-04-03T16:44:47;8.30;92.40
13697;DHT22;6920;50.080;8.226;2023-04-03T16:47:14;8.30;92.70
13697;DHT22;6920;50.080;8.226;2023-04-03T16:49:45;8.30;93.10
13697;DHT22;6920;50.080;8.226;2023-04-03T16:52:17;8.20;93.50
13697;DHT22;6920;50.080;8.226;2023-04-03T16:57:12;8.00;93.60
13697;DHT22;6920;50.080;8.226;2023-04-03T16:59:41;8.00;93.40
13697;DHT22;6920;50.080;8.226;2023-04-03T17:02:10;7.90;93.00
13697;DHT22;6920;50.080;8.226;2023-04-03T17:04:42;7.80;92.80